Time;durP1;ratioP1;P1;durP2;ratioP2;P2;SDS_P1;SDS_P2;PMS_P1;PMS_P2;Temp;Humidity;BMP_temperature;BMP_pressure;BME280_temperature;BME280_humidity;BME280_pressure;Samples;Min_cycle;Max_cycle;Signal;HPM_P1;HPM_P2
2023/07/12 00:00:30;;;;;;;3.10;1.70;;;;;;;23.31;53.63;99237.16;10427050;28;20076;-60
2023/07/12 00:05:32;;;;;;;3.42;1.50;;;;;;;23.32;52.96;99220.16;10423656;28;20820;-60
2023/07/12 00:10:36;;;;;;;2.80;1.60;;;;;;;23.18;53.63;99218.38;10426384;28;20051;-60
2023/07/12 00:15:39;;;;;;;3.22;1.60;;;;;;;23.07;53.75;99210.84;10425642;28;20063;-60
2023/07/12 00:20:41;;;;;;;3.40;1.63;;;;;;;23.10;53.87;99197.97;10413711;28;20047;-60
2023/07/12 00:25:45;;;;;;;6.68;1.77;;;;;;;23.09;53.74;99190.16;10424935;28;20052;-60
2023/07/12 00:30:48;;;;;;;3.20;1.67;;;;;;;23.07;53.82;99192.19;10425568;28;20044;-60
2023/07/12 00:35:50;;;;;;;3.53;1.52;;;;;;;22.94;54.43;99179.56;10427678;28;20064;-60
2023/07/12 00:41:19;;;;;;;2.92;1.38;;;;;;;22.96;54.95;99174.03;10424263;28;20146;-60
2023/07/12 00:46:31;;;;;;;3.17;1.60;;;;;;;22.87;54.52;99181.31;10425691;28;20047;-60
2023/07/12 00:51:45;;;;;;;4.10;1.50;;;;;;;22.83;55.12;99168.53;10424743;28;20388;-60
2023/07/12 00:56:47;;;;;;;3.33;1.60;;;;;;;22.80;54.96;99179.59;10400405;28;20071;-60
2023/07/12 01:01:54;;;;;;;4.35;1.60;;;;;;;22.82;55.11;99182.88;10437607;28;20040;-60
2023/07/12 01:06:57;;;;;;;2.33;1.20;;;;;;;22.86;55.09;99189.50;10423142;28;20135;-60
2023/07/12 01:12:00;;;;;;;5.07;1.70;;;;;;;22.82;55.07;99178.34;10424346;28;20065;-60
2023/07/12 01:17:05;;;;;;;3.33;1.40;;;;;;;22.88;54.96;99195.47;10393554;28;20219;-60
2023/07/12 01:22:07;;;;;;;3.95;1.50;;;;;;;22.79;54.92;99188.59;10425549;28;20045;-60
2023/07/12 01:27:19;;;;;;;3.47;1.70;;;;;;;22.65;56.37;99184.91;10425086;28;21269;-60
2023/07/12 01:32:21;;;;;;;2.15;1.55;;;;;;;22.60;55.51;99203.28;10425229;28;20053;-60
2023/07/12 01:37:23;;;;;;;2.85;1.77;;;;;;;22.46;56.25;99199.63;10425222;28;20531;-60
2023/07/12 01:42:26;;;;;;;2.13;1.40;;;;;;;22.41;56.56;99218.00;10393906;28;20076;-60
2023/07/12 01:47:28;;;;;;;3.72;1.70;;;;;;;22.38;56.37;99218.38;10423233;28;20139;-60
2023/07/12 01:52:30;;;;;;;2.97;1.58;;;;;;;22.35;56.48;99213.41;10423140;28;20060;-60
2023/07/12 01:57:32;;;;;;;2.42;1.40;;;;;;;22.20;56.84;99209.94;10406889;28;20488;-60
2023/07/12 02:02:35;;;;;;;3.42;1.75;;;;;;;22.27;57.11;99223.34;10421629;28;20041;-60
2023/07/12 02:07:37;;;;;;;3.42;1.50;;;;;;;22.32;56.68;99224.44;10452751;28;20068;-60
2023/07/12 02:12:39;;;;;;;2.05;1.25;;;;;;;22.27;56.87;99202.03;10418255;28;20300;-60
2023/07/12 02:17:43;;;;;;;2.33;1.40;;;;;;;22.23;56.83;99198.09;10439646;28;20119;-60
2023/07/12 02:22:49;;;;;;;2.38;1.38;;;;;;;22.20;56.93;99204.59;10450859;28;20049;-60
2023/07/12 02:27:51;;;;;;;2.28;1.30;;;;;;;22.25;57.22;99207.53;10436281;28;20053;-60
2023/07/12 02:32:55;;;;;;;2.67;1.60;;;;;;;22.14;57.33;99212.50;10437716;28;20456;-60
2023/07/12 02:37:58;;;;;;;4.85;1.70;;;;;;;22.09;57.42;99213.03;10436561;28;20063;-60
2023/07/12 02:43:00;;;;;;;4.38;1.70;;;;;;;22.17;57.20;99198.81;10437597;28;20059;-60
2023/07/12 02:48:03;;;;;;;3.53;1.40;;;;;;;22.24;57.09;99203.22;10436328;28;20376;-60
2023/07/12 02:53:19;;;;;;;3.22;1.65;;;;;;;22.17;58.01;99204.16;10436939;28;20136;-60
2023/07/12 02:58:21;;;;;;;2.80;1.45;;;;;;;22.06;57.59;99208.09;10433947;28;20138;-60
2023/07/12 03:03:24;;;;;;;3.42;1.45;;;;;;;21.96;57.88;99204.00;10434106;28;20250;-60
2023/07/12 03:08:26;;;;;;;2.95;1.45;;;;;;;22.02;57.56;99190.78;10430766;28;20051;-60
2023/07/12 03:13:28;;;;;;;2.25;1.33;;;;;;;22.00;57.48;99190.13;10430135;28;20476;-60
2023/07/12 03:18:31;;;;;;;3.45;1.50;;;;;;;21.91;57.62;99188.56;10426255;28;20044;-60
2023/07/12 03:23:34;;;;;;;2.00;1.35;;;;;;;21.84;58.18;99192.97;10427651;28;20048;-60
2023/07/12 03:28:36;;;;;;;3.20;1.50;;;;;;;21.88;58.04;99203.03;10428742;28;20052;-60
2023/07/12 03:33:39;;;;;;;2.45;1.35;;;;;;;21.91;57.76;99220.50;10427900;28;20044;-60
2023/07/12 03:38:41;;;;;;;4.63;2.13;;;;;;;21.98;57.51;99231.25;10426350;28;20577;-60
2023/07/12 03:43:43;;;;;;;4.18;1.88;;;;;;;22.05;56.78;99248.22;10425005;28;20207;-60
2023/07/12 03:48:45;;;;;;;4.80;1.98;;;;;;;22.13;56.17;99253.47;10423128;28;20055;-60
2023/07/12 03:53:47;;;;;;;2.13;1.30;;;;;;;22.15;55.93;99267.44;10423792;28;20148;-59
2023/07/12 03:58:49;;;;;;;2.33;1.35;;;;;;;22.15;55.50;99281.53;10424965;28;20402;-60
2023/07/12 04:03:51;;;;;;;2.92;1.35;;;;;;;22.05;55.62;99322.78;10414852;28;20493;-60
2023/07/12 04:08:53;;;;;;;2.20;1.15;;;;;;;22.01;55.12;99310.75;10422124;28;20056;-60
2023/07/12 04:13:56;;;;;;;1.50;1.02;;;;;;;22.04;54.93;99318.44;10422970;28;20056;-60
2023/07/12 04:18:59;;;;;;;1.83;1.23;;;;;;;21.98;54.64;99319.97;10420695;28;20091;-60
2023/07/12 04:24:01;;;;;;;2.10;1.10;;;;;;;22.01;53.52;99334.72;10421745;28;20052;-60
2023/07/12 04:29:03;;;;;;;2.42;0.98;;;;;;;22.02;52.98;99325.75;10424339;28;20063;-60
2023/07/12 04:34:06;;;;;;;1.60;0.90;;;;;;;21.89;53.09;99337.00;10415487;28;20068;-60
2023/07/12 04:39:08;;;;;;;1.33;0.85;;;;;;;21.89;52.92;99414.22;10416403;28;20045;-60
2023/07/12 04:44:10;;;;;;;1.73;0.80;;;;;;;21.54;55.26;99396.09;10418610;28;20064;-60
2023/07/12 04:49:12;;;;;;;1.35;0.80;;;;;;;21.05;56.14;99411.41;10416322;28;20044;-60
2023/07/12 04:54:14;;;;;;;3.53;0.90;;;;;;;20.97;56.88;99412.25;10420200;28;20056;-60
2023/07/12 04:59:17;;;;;;;2.85;0.90;;;;;;;21.02;57.33;99415.25;10420919;28;20044;-60
2023/07/12 05:04:20;;;;;;;1.45;0.90;;;;;;;21.30;56.44;99415.66;10400198;28;20049;-59
2023/07/12 05:09:22;;;;;;;1.15;0.93;;;;;;;23.61;52.62;99414.94;10422223;28;20516;-60
2023/07/12 05:14:24;;;;;;;1.05;0.73;;;;;;;23.33;52.68;99437.97;10425418;28;20505;-60
2023/07/12 05:19:26;;;;;;;1.55;0.90;;;;;;;27.30;46.43;99431.66;10421741;28;20454;-60
2023/07/12 05:24:28;;;;;;;0.82;0.73;;;;;;;29.71;41.86;99436.28;10424321;28;20458;-60
2023/07/12 05:29:33;;;;;;;1.65;0.80;;;;;;;31.47;39.11;99446.16;10422850;28;20088;-61
2023/07/12 05:34:36;;;;;;;1.17;0.70;;;;;;;30.04;38.96;99450.19;10422135;28;20049;-61
2023/07/12 05:39:39;;;;;;;1.98;1.00;;;;;;;27.92;41.26;99458.72;10427036;28;20079;-61
2023/07/12 05:44:41;;;;;;;0.80;0.55;;;;;;;26.13;43.79;99475.34;10425800;28;20618;-61
2023/07/12 05:49:43;;;;;;;1.88;0.80;;;;;;;24.98;45.38;99477.81;10431347;28;20128;-61
2023/07/12 05:54:44;;;;;;;0.93;0.70;;;;;;;24.40;45.94;99471.91;10431395;28;20537;-60
2023/07/12 05:59:46;;;;;;;0.50;0.50;;;;;;;24.53;45.84;99477.41;10432239;28;20540;-60
2023/07/12 06:04:49;;;;;;;2.17;0.80;;;;;;;24.58;45.26;99480.31;10429952;28;20454;-60
2023/07/12 06:09:51;;;;;;;1.52;0.90;;;;;;;24.26;45.32;99468.28;10432362;28;20045;-60
2023/07/12 06:14:53;;;;;;;1.52;0.77;;;;;;;23.91;45.29;99475.28;10429747;28;20151;-60
2023/07/12 06:19:55;;;;;;;1.08;0.70;;;;;;;23.72;46.07;99488.38;10431664;28;20349;-60
2023/07/12 06:24:57;;;;;;;1.65;0.73;;;;;;;23.48;46.66;99485.00;10431533;28;20049;-60
2023/07/12 06:29:59;;;;;;;2.40;0.75;;;;;;;23.82;45.70;99489.75;10429339;28;20045;-60
2023/07/12 06:35:01;;;;;;;1.10;0.73;;;;;;;24.49;44.88;99494.84;10431241;28;20076;-60
2023/07/12 06:40:05;;;;;;;0.70;0.60;;;;;;;24.80;44.46;99485.47;10428981;28;20484;-60
2023/07/12 06:45:07;;;;;;;0.45;0.45;;;;;;;24.96;44.01;99476.34;10426222;28;20150;-60
2023/07/12 06:50:09;;;;;;;1.27;0.65;;;;;;;24.98;43.33;99491.19;10430325;28;20463;-61
2023/07/12 06:55:11;;;;;;;1.55;1.05;;;;;;;24.83;43.58;99471.72;10428713;28;20128;-62
2023/07/12 07:00:14;;;;;;;1.30;0.90;;;;;;;24.65;43.77;99466.00;10428256;28;20150;-61
2023/07/12 07:05:16;;;;;;;1.25;0.52;;;;;;;24.69;43.14;99472.63;10429408;28;20492;-61
2023/07/12 07:10:19;;;;;;;0.57;0.43;;;;;;;24.80;42.80;99465.91;10427936;28;20151;-61
2023/07/12 07:15:21;;;;;;;0.35;0.32;;;;;;;25.18;42.32;99461.91;10412759;28;20045;-61
2023/07/12 07:20:23;;;;;;;0.52;0.47;;;;;;;25.67;41.49;99462.59;10429114;28;20067;-62
2023/07/12 07:25:28;;;;;;;1.02;0.60;;;;;;;26.31;40.11;99467.56;10418327;28;20183;-62
2023/07/12 07:30:31;;;;;;;0.50;0.47;;;;;;;27.17;39.97;99462.06;10430053;28;20098;-62
2023/07/12 07:35:33;;;;;;;0.80;0.65;;;;;;;28.71;38.79;99463.59;10427958;28;20448;-62
2023/07/12 07:40:39;;;;;;;1.52;0.55;;;;;;;29.20;37.27;99463.59;10426202;28;20041;-62
2023/07/12 07:45:41;;;;;;;2.38;0.60;;;;;;;29.72;35.31;99467.59;10425838;28;20123;-63
2023/07/12 07:50:43;;;;;;;0.95;0.50;;;;;;;30.83;35.32;99460.63;10427327;28;20044;-63
2023/07/12 07:55:45;;;;;;;1.23;0.50;;;;;;;31.21;33.91;99458.28;10427048;28;20047;-63
2023/07/12 08:00:47;;;;;;;0.77;0.60;;;;;;;31.30;33.27;99456.88;10427737;28;20505;-63
2023/07/12 08:05:49;;;;;;;0.50;0.40;;;;;;;32.07;32.28;99446.59;10425692;28;20076;-63
2023/07/12 08:10:51;;;;;;;2.22;1.30;;;;;;;32.14;31.33;99448.13;10425237;28;20053;-63
2023/07/12 08:15:56;;;;;;;1.10;0.70;;;;;;;30.60;32.03;99453.31;10426597;28;20181;-63
2023/07/12 08:20:58;;;;;;;0.50;0.50;;;;;;;30.22;32.29;99452.84;10426559;28;20481;-62
2023/07/12 08:26:00;;;;;;;0.65;0.50;;;;;;;31.10;31.10;99461.00;10404433;28;20044;-62
2023/07/12 08:31:03;;;;;;;2.28;0.50;;;;;;;30.72;30.95;99452.50;10422433;28;20052;-62
2023/07/12 08:36:06;;;;;;;0.47;0.43;;;;;;;29.73;31.08;99464.69;10421051;28;20409;-62
2023/07/12 08:41:15;;;;;;;0.77;0.60;;;;;;;29.95;30.96;99459.66;10419649;28;20512;-62
2023/07/12 08:46:26;;;;;;;1.65;0.73;;;;;;;30.76;29.94;99467.19;10419652;28;20045;-62
2023/07/12 08:51:36;;;;;;;1.23;0.60;;;;;;;30.26;31.71;99456.72;10435940;28;20052;-62
2023/07/12 08:56:39;;;;;;;1.02;0.50;;;;;;;30.84;31.13;99456.88;10420952;28;20052;-62
2023/07/12 09:01:53;;;;;;;0.82;0.60;;;;;;;31.35;29.92;99461.59;10420899;28;20059;-62
2023/07/12 09:06:59;;;;;;;1.00;0.60;;;;;;;31.25;30.07;99447.84;10420200;28;20106;-62
2023/07/12 09:12:04;;;;;;;1.02;0.70;;;;;;;30.93;30.15;99460.03;10417830;28;20048;-62
2023/07/12 09:17:22;;;;;;;1.65;0.88;;;;;;;31.07;29.87;99451.50;10422689;28;20290;-61
2023/07/12 09:22:29;;;;;;;1.60;0.93;;;;;;;31.68;29.97;99440.13;10428530;28;20462;-62
2023/07/12 09:27:31;;;;;;;0.75;0.68;;;;;;;31.65;29.69;99440.63;10418610;28;20852;-62
2023/07/12 09:32:36;;;;;;;0.52;0.52;;;;;;;31.91;29.79;99447.34;10429288;28;20152;-62
2023/07/12 09:37:39;;;;;;;0.98;0.40;;;;;;;30.34;31.00;99445.59;10425844;28;20056;-62
2023/07/12 09:42:47;;;;;;;2.30;0.70;;;;;;;28.91;33.14;99465.09;10422354;28;20140;-62
2023/07/12 09:48:09;;;;;;;1.88;0.65;;;;;;;28.13;34.25;99465.66;10425444;28;20580;-62
2023/07/12 09:53:41;;;;;;;0.85;0.70;;;;;;;28.95;33.31;99471.69;10429556;28;20048;-62
2023/07/12 09:58:53;;;;;;;0.63;0.63;;;;;;;30.09;32.06;99458.41;10423156;28;20451;-62
2023/07/12 10:03:59;;;;;;;0.80;0.65;;;;;;;30.78;31.47;99456.97;10427470;28;20037;-62
2023/07/12 10:09:15;;;;;;;0.50;0.50;;;;;;;31.27;29.17;99456.56;10428186;28;20053;-62
2023/07/12 10:14:20;;;;;;;0.70;0.57;;;;;;;30.71;29.80;99454.38;10422623;28;20124;-62
2023/07/12 10:19:26;;;;;;;1.45;0.55;;;;;;;31.03;29.76;99461.13;10428419;28;20107;-62
2023/07/12 10:24:45;;;;;;;1.48;0.57;;;;;;;31.58;28.35;99456.16;10405667;28;20051;-62
2023/07/12 10:29:57;;;;;;;0.50;0.50;;;;;;;31.28;28.73;99471.69;10428615;28;20175;-62
2023/07/12 10:35:17;;;;;;;1.05;0.57;;;;;;;31.11;28.69;99476.97;10424628;28;20136;-62
2023/07/12 10:40:26;;;;;;;0.50;0.45;;;;;;;30.79;28.61;99478.34;10429372;28;20047;-62
2023/07/12 10:45:33;;;;;;;1.00;0.60;;;;;;;30.00;30.54;99475.97;10424506;28;20585;-62
2023/07/12 10:50:43;;;;;;;0.47;0.47;;;;;;;29.36;30.83;99472.97;10428075;28;20110;-61
2023/07/12 10:56:06;;;;;;;1.70;0.60;;;;;;;29.12;31.07;99468.44;10422927;28;20390;-62
2023/07/12 11:01:35;;;;;;;1.27;0.63;;;;;;;29.30;30.32;99469.28;10426434;28;20041;-62
2023/07/12 11:07:04;;;;;;;0.60;0.50;;;;;;;29.44;30.00;99459.25;10424793;28;20045;-62
2023/07/12 11:12:07;;;;;;;0.77;0.70;;;;;;;29.36;30.31;99456.81;10408521;28;20568;-62
2023/07/12 11:17:09;;;;;;;2.63;1.10;;;;;;;29.40;30.37;99447.28;10423589;28;20060;-62
2023/07/12 11:22:42;;;;;;;2.58;0.65;;;;;;;29.11;29.66;99462.25;10424578;28;20171;-62
2023/07/12 11:27:44;;;;;;;0.93;0.63;;;;;;;29.00;30.69;99473.72;10419026;28;20211;-62
2023/07/12 11:32:48;;;;;;;0.38;0.38;;;;;;;29.16;30.47;99461.56;10406759;28;20424;-64
2023/07/12 11:37:58;;;;;;;1.85;0.77;;;;;;;29.21;29.90;99456.34;10422235;28;20565;-62
2023/07/12 11:43:22;;;;;;;1.52;0.70;;;;;;;29.39;29.70;99453.69;10425144;28;20084;-62
2023/07/12 11:48:29;;;;;;;1.27;0.60;;;;;;;29.46;29.20;99435.59;10418646;28;20064;-62
2023/07/12 11:53:31;;;;;;;1.55;0.73;;;;;;;29.57;29.45;99435.66;10422631;28;20060;-62
2023/07/12 11:58:35;;;;;;;0.68;0.50;;;;;;;29.91;28.17;99427.97;10421876;28;20065;-62
2023/07/12 12:03:37;;;;;;;1.55;0.60;;;;;;;29.81;28.62;99434.72;10417054;28;20051;-62
2023/07/12 12:08:46;;;;;;;2.10;0.95;;;;;;;29.53;27.38;99425.53;10421202;28;20214;-62
2023/07/12 12:13:52;;;;;;;1.98;0.70;;;;;;;29.23;26.86;99430.00;10414482;28;20505;-62
2023/07/12 12:19:07;;;;;;;1.58;1.02;;;;;;;29.48;26.04;99428.09;10424581;28;20063;-62
2023/07/12 12:24:19;;;;;;;0.77;0.43;;;;;;;30.15;24.81;99421.63;10417046;28;20072;-62
2023/07/12 12:29:23;;;;;;;0.52;0.50;;;;;;;30.10;25.38;99433.09;10421192;28;20059;-62
2023/07/12 12:34:33;;;;;;;1.00;0.70;;;;;;;29.79;25.85;99430.59;10418034;28;20033;-62
2023/07/12 12:39:36;;;;;;;1.20;0.65;;;;;;;29.53;25.98;99414.75;10423100;28;20534;-62
2023/07/12 12:44:38;;;;;;;1.20;0.50;;;;;;;29.86;26.03;99423.25;10417680;28;20134;-62
2023/07/12 12:49:41;;;;;;;0.73;0.40;;;;;;;29.50;25.76;99415.22;10421075;28;20053;-62
2023/07/12 12:54:47;;;;;;;1.55;0.60;;;;;;;30.19;25.60;99414.72;10416593;28;20041;-62
2023/07/12 13:00:08;;;;;;;0.65;0.40;;;;;;;30.02;24.97;99417.25;10422839;28;20407;-62
2023/07/12 13:05:14;;;;;;;1.58;0.77;;;;;;;29.81;25.61;99415.00;10421283;28;20231;-62
2023/07/12 13:10:33;;;;;;;2.05;0.80;;;;;;;29.89;25.25;99407.44;10417661;28;20033;-63
2023/07/12 13:15:39;;;;;;;1.17;0.82;;;;;;;29.91;25.01;99422.56;10420919;28;20052;-63
2023/07/12 13:21:01;;;;;;;1.02;0.55;;;;;;;29.84;24.35;99426.19;10422243;28;20165;-63
2023/07/12 13:26:17;;;;;;;0.45;0.40;;;;;;;29.99;22.19;99430.38;10420953;28;20162;-62
2023/07/12 13:31:21;;;;;;;1.42;0.47;;;;;;;29.76;23.29;99433.75;10418701;28;20074;-62
2023/07/12 13:36:26;;;;;;;0.38;0.38;;;;;;;29.63;24.50;99423.97;10405399;28;20044;-62
2023/07/12 13:41:28;;;;;;;0.95;0.60;;;;;;;29.52;24.48;99416.63;10422261;28;20150;-62
2023/07/12 13:46:33;;;;;;;1.75;0.98;;;;;;;29.42;24.38;99429.81;10416553;28;20045;-62
2023/07/12 13:51:35;;;;;;;0.70;0.47;;;;;;;29.59;24.67;99424.63;10418479;28;20045;-62
2023/07/12 13:56:38;;;;;;;0.68;0.57;;;;;;;29.77;24.32;99422.75;10417568;28;20049;-62
2023/07/12 14:01:43;;;;;;;0.82;0.65;;;;;;;29.62;24.52;99427.69;10424803;28;20033;-62
2023/07/12 14:07:01;;;;;;;0.98;0.80;;;;;;;29.44;23.86;99426.91;10424539;28;20541;-61
2023/07/12 14:12:22;;;;;;;1.17;0.40;;;;;;;28.94;24.47;99423.47;10430288;28;20520;-61
2023/07/12 14:17:28;;;;;;;0.90;0.60;;;;;;;29.08;23.85;99417.72;10428200;28;20123;-61
2023/07/12 14:22:31;;;;;;;0.65;0.45;;;;;;;28.88;24.39;99433.25;10427379;28;20512;-61
2023/07/12 14:27:36;;;;;;;0.63;0.63;;;;;;;29.23;24.23;99427.31;10426448;28;20049;-61
2023/07/12 14:32:41;;;;;;;1.27;0.73;;;;;;;29.15;23.27;99427.59;10427416;28;20263;-61
2023/07/12 14:37:43;;;;;;;1.33;0.50;;;;;;;28.85;23.53;99433.69;10427544;28;20401;-61
2023/07/12 14:42:46;;;;;;;0.90;0.45;;;;;;;28.84;23.83;99437.44;10428943;28;20843;-61
2023/07/12 14:47:49;;;;;;;2.67;0.70;;;;;;;28.72;23.98;99432.97;10426433;28;20135;-62
2023/07/12 14:52:51;;;;;;;0.68;0.60;;;;;;;28.92;23.79;99423.69;10422716;28;20193;-62
2023/07/12 14:57:53;;;;;;;1.48;0.52;;;;;;;28.94;23.41;99421.59;10415765;28;20041;-62
2023/07/12 15:02:58;;;;;;;1.00;0.60;;;;;;;29.20;23.63;99417.81;10426092;28;20068;-62
2023/07/12 15:08:00;;;;;;;0.47;0.47;;;;;;;29.27;23.69;99420.44;10419725;28;20179;-62
2023/07/12 15:13:04;;;;;;;0.93;0.57;;;;;;;29.08;23.94;99433.88;10425197;28;20053;-62
2023/07/12 15:18:22;;;;;;;0.57;0.52;;;;;;;29.37;23.57;99429.63;10420086;28;20060;-62
2023/07/12 15:23:31;;;;;;;0.95;0.55;;;;;;;29.33;22.74;99425.75;10425599;28;20590;-61
2023/07/12 15:28:38;;;;;;;1.27;0.50;;;;;;;29.23;23.58;99421.94;10420985;28;20049;-62
2023/07/12 15:33:40;;;;;;;0.73;0.63;;;;;;;29.53;23.48;99420.16;10416869;28;20134;-62
2023/07/12 15:38:45;;;;;;;0.57;0.43;;;;;;;29.62;22.55;99421.50;10418563;28;20060;-61
2023/07/12 15:43:57;;;;;;;1.52;0.77;;;;;;;29.38;22.96;99419.69;10416143;28;20143;-62
2023/07/12 15:49:00;;;;;;;0.70;0.70;;;;;;;29.53;23.20;99420.16;10398539;28;20049;-62
2023/07/12 15:54:21;;;;;;;1.35;0.60;;;;;;;29.26;22.67;99424.16;10417745;28;20139;-62
2023/07/12 15:59:28;;;;;;;0.50;0.47;;;;;;;28.92;23.46;99410.25;10407715;28;20833;-62
2023/07/12 16:04:31;;;;;;;0.65;0.52;;;;;;;28.88;23.30;99400.97;10417078;28;20175;-62
2023/07/12 16:09:33;;;;;;;4.88;0.60;;;;;;;28.74;23.68;99415.56;10419606;28;20076;-62
2023/07/12 16:14:35;;;;;;;3.20;0.90;;;;;;;28.98;23.55;99417.41;10420554;28;20045;-62
2023/07/12 16:19:37;;;;;;;0.52;0.52;;;;;;;28.88;23.56;99419.81;10419700;28;20064;-62
2023/07/12 16:24:39;;;;;;;1.27;0.70;;;;;;;28.96;23.54;99430.28;10421041;28;20191;-62
2023/07/12 16:29:43;;;;;;;1.33;0.60;;;;;;;29.08;23.44;99438.44;10404305;28;20723;-62
2023/07/12 16:34:45;;;;;;;1.45;0.68;;;;;;;28.95;23.24;99439.38;10414133;28;20044;-62
2023/07/12 16:39:47;;;;;;;1.88;1.13;;;;;;;28.54;23.09;99431.06;10425839;28;20041;-62
2023/07/12 16:44:49;;;;;;;1.10;0.65;;;;;;;28.69;23.43;99441.47;10423004;28;20037;-62
2023/07/12 16:49:51;;;;;;;0.63;0.55;;;;;;;28.71;23.36;99450.13;10422972;28;20705;-61
2023/07/12 16:54:53;;;;;;;1.20;0.50;;;;;;;28.46;23.11;99450.13;10422224;28;20544;-62
2023/07/12 16:59:56;;;;;;;1.38;0.80;;;;;;;28.30;23.52;99461.41;10424565;28;20136;-62
2023/07/12 17:04:58;;;;;;;2.00;0.50;;;;;;;28.17;23.76;99472.25;10419547;28;20041;-62
2023/07/12 17:10:01;;;;;;;1.02;0.47;;;;;;;28.03;23.85;99466.09;10422840;28;20053;-62
2023/07/12 17:15:03;;;;;;;2.95;0.60;;;;;;;27.64;24.40;99462.75;10412814;28;20152;-61
2023/07/12 17:20:06;;;;;;;0.95;0.57;;;;;;;27.41;24.39;99469.44;10418551;28;20370;-62
2023/07/12 17:25:12;;;;;;;0.38;0.38;;;;;;;27.18;24.46;99476.28;10418915;28;20045;-62
2023/07/12 17:30:14;;;;;;;2.88;1.60;;;;;;;27.15;24.72;99477.56;10420759;28;20386;-62
2023/07/12 17:35:16;;;;;;;1.17;0.80;;;;;;;27.18;24.55;99479.81;10417797;28;20049;-62
2023/07/12 17:40:18;;;;;;;1.52;1.10;;;;;;;26.99;24.89;99493.22;10424300;28;20043;-62
2023/07/12 17:45:20;;;;;;;0.73;0.70;;;;;;;26.84;25.15;99493.44;10417504;28;20389;-61
2023/07/12 17:50:22;;;;;;;1.80;1.15;;;;;;;26.73;25.25;99498.59;10426697;28;20132;-61
2023/07/12 17:55:25;;;;;;;1.83;1.30;;;;;;;26.65;25.41;99492.38;10442275;28;20056;-61
2023/07/12 18:00:27;;;;;;;1.55;1.10;;;;;;;26.50;25.69;99489.06;10423862;28;20049;-61
2023/07/12 18:05:29;;;;;;;1.20;0.80;;;;;;;26.42;25.46;99504.50;10422969;28;20049;-61
2023/07/12 18:10:31;;;;;;;0.77;0.63;;;;;;;26.38;25.74;99503.25;10427614;28;20044;-61
2023/07/12 18:15:33;;;;;;;0.47;0.40;;;;;;;26.26;25.82;99500.31;10417564;28;20603;-61
2023/07/12 18:20:36;;;;;;;2.47;0.90;;;;;;;26.08;25.77;99505.44;10429767;28;20782;-61
2023/07/12 18:25:42;;;;;;;0.90;0.50;;;;;;;25.99;25.66;99500.47;10426476;28;20049;-61
2023/07/12 18:30:52;;;;;;;1.17;0.60;;;;;;;25.90;25.43;99497.09;10426544;28;20421;-61
2023/07/12 18:35:54;;;;;;;0.85;0.68;;;;;;;25.84;25.73;99498.72;10422663;28;20056;-61
2023/07/12 18:40:56;;;;;;;1.20;0.70;;;;;;;25.68;25.80;99507.09;10396306;28;20543;-61
2023/07/12 18:45:59;;;;;;;1.48;0.80;;;;;;;25.59;26.08;99505.59;10424341;28;20536;-61
2023/07/12 18:51:01;;;;;;;0.88;0.65;;;;;;;25.41;26.66;99502.63;10418539;28;20041;-61
2023/07/12 18:56:03;;;;;;;1.52;0.85;;;;;;;25.16;27.72;99509.44;10421874;28;20049;-61
2023/07/12 19:01:11;;;;;;;3.33;0.57;;;;;;;24.99;28.98;99513.41;10425618;28;20055;-61
2023/07/12 19:06:18;;;;;;;0.98;0.50;;;;;;;24.79;29.11;99512.44;10429102;28;20131;-61
2023/07/12 19:11:42;;;;;;;0.93;0.75;;;;;;;24.56;30.40;99523.28;10423891;28;20135;-61
2023/07/12 19:16:44;;;;;;;0.47;0.38;;;;;;;24.37;30.13;99523.91;10425931;28;20688;-62
2023/07/12 19:21:49;;;;;;;1.27;0.65;;;;;;;24.20;30.66;99534.03;10428627;28;20044;-61
2023/07/12 19:26:51;;;;;;;0.95;0.75;;;;;;;24.07;30.76;99541.03;10427038;28;20045;-61
2023/07/12 19:31:56;;;;;;;0.40;0.40;;;;;;;23.94;31.04;99540.88;10428307;28;20051;-61
2023/07/12 19:36:58;;;;;;;0.65;0.40;;;;;;;23.76;31.74;99565.25;10423819;28;20129;-61
2023/07/12 19:42:00;;;;;;;1.25;0.60;;;;;;;23.70;32.04;99568.66;10424193;28;20064;-61
2023/07/12 19:47:02;;;;;;;1.05;0.63;;;;;;;23.51;32.47;99584.41;10420579;28;20405;-61
2023/07/12 19:52:11;;;;;;;0.68;0.50;;;;;;;23.42;33.57;99589.00;10419958;28;20045;-61
2023/07/12 19:57:18;;;;;;;0.73;0.67;;;;;;;23.29;33.29;99597.59;10425033;28;20045;-61
2023/07/12 20:02:28;;;;;;;0.40;0.40;;;;;;;23.16;33.42;99605.41;10426849;28;20045;-61
2023/07/12 20:07:30;;;;;;;0.60;0.60;;;;;;;23.06;33.18;99604.81;10409465;28;20048;-61
2023/07/12 20:12:32;;;;;;;0.73;0.50;;;;;;;22.77;33.59;99617.19;10426336;28;20044;-61
2023/07/12 20:17:34;;;;;;;2.45;0.50;;;;;;;22.77;33.80;99619.84;10426986;28;20056;-61
2023/07/12 20:22:37;;;;;;;0.63;0.60;;;;;;;22.77;34.08;99618.03;10421442;28;20045;-61
2023/07/12 20:27:39;;;;;;;0.50;0.50;;;;;;;22.76;34.21;99618.22;10425728;28;20064;-61
2023/07/12 20:32:41;;;;;;;0.43;0.43;;;;;;;22.66;34.38;99624.56;10423961;28;20052;-61
2023/07/12 20:37:43;;;;;;;1.50;0.95;;;;;;;22.65;34.21;99636.22;10423041;28;20052;-61
2023/07/12 20:42:49;;;;;;;0.52;0.52;;;;;;;22.63;34.50;99632.91;10426105;28;20044;-61
2023/07/12 20:47:54;;;;;;;6.15;0.60;;;;;;;22.47;34.69;99627.69;10413846;28;20053;-61
2023/07/12 20:53:05;;;;;;;0.55;0.55;;;;;;;22.47;34.52;99627.69;10412941;28;20129;-61
2023/07/12 20:58:08;;;;;;;0.75;0.40;;;;;;;22.47;34.65;99618.84;10420260;28;20386;-61
2023/07/12 21:03:10;;;;;;;0.60;0.60;;;;;;;22.43;34.57;99615.69;10418102;28;20542;-61
2023/07/12 21:08:13;;;;;;;0.68;0.63;;;;;;;22.40;34.31;99616.03;10419246;28;20540;-61
2023/07/12 21:13:15;;;;;;;0.77;0.55;;;;;;;22.38;34.45;99620.72;10418564;28;20509;-61
2023/07/12 21:18:18;;;;;;;0.52;0.50;;;;;;;22.33;34.50;99620.41;10411748;28;20053;-61
2023/07/12 21:23:21;;;;;;;1.88;0.80;;;;;;;22.27;34.70;99628.28;10395842;28;20069;-61
2023/07/12 21:28:23;;;;;;;1.02;0.50;;;;;;;22.14;35.15;99642.13;10421503;28;20688;-62
2023/07/12 21:33:25;;;;;;;2.30;0.70;;;;;;;22.00;35.40;99642.81;10419513;28;20119;-61
2023/07/12 21:38:27;;;;;;;0.63;0.60;;;;;;;21.92;35.36;99645.50;10420577;28;20743;-61
2023/07/12 21:43:30;;;;;;;0.98;0.70;;;;;;;21.81;35.57;99659.19;10421177;28;20417;-61
2023/07/12 21:48:34;;;;;;;1.08;0.50;;;;;;;21.59;35.85;99675.84;10421989;28;20080;-61
2023/07/12 21:53:37;;;;;;;0.40;0.40;;;;;;;21.52;36.07;99672.19;10423282;28;20286;-61
2023/07/12 21:58:39;;;;;;;0.95;0.60;;;;;;;21.45;36.04;99673.88;10422105;28;20063;-61
2023/07/12 22:03:41;;;;;;;0.50;0.50;;;;;;;21.28;36.43;99685.47;10421663;28;20069;-61
2023/07/12 22:08:44;;;;;;;0.68;0.60;;;;;;;21.21;36.71;99690.63;10422199;28;20102;-61
2023/07/12 22:13:49;;;;;;;2.85;0.75;;;;;;;21.06;36.79;99690.44;10419105;28;20129;-61
2023/07/12 22:18:51;;;;;;;0.60;0.60;;;;;;;21.04;36.75;99700.41;10420146;28;20307;-61
2023/07/12 22:23:53;;;;;;;1.25;0.60;;;;;;;21.01;36.57;99716.69;10425269;28;20436;-61
2023/07/12 22:28:56;;;;;;;2.08;0.68;;;;;;;20.99;37.26;99718.66;10429402;28;20587;-61
2023/07/12 22:33:59;;;;;;;1.30;0.75;;;;;;;20.81;37.79;99741.88;10426741;28;20037;-61
2023/07/12 22:39:01;;;;;;;1.70;0.60;;;;;;;20.53;38.64;99748.41;10430658;28;20311;-61
2023/07/12 22:44:03;;;;;;;1.17;0.60;;;;;;;20.32;38.97;99768.34;10431438;28;20045;-61
2023/07/12 22:49:05;;;;;;;0.60;0.60;;;;;;;20.12;39.39;99775.72;10430712;28;20433;-61
2023/07/12 22:54:08;;;;;;;2.83;0.90;;;;;;;20.13;39.57;99782.69;10424955;28;20408;-61
2023/07/12 22:59:10;;;;;;;1.17;0.70;;;;;;;20.05;39.51;99791.41;10429049;28;20327;-61
2023/07/12 23:04:12;;;;;;;1.67;0.60;;;;;;;19.86;39.94;99796.09;10425075;28;20087;-61
2023/07/12 23:09:14;;;;;;;0.50;0.50;;;;;;;19.85;39.58;99820.94;10445125;28;20235;-61
2023/07/12 23:14:16;;;;;;;0.52;0.50;;;;;;;19.73;39.73;99827.44;10424891;28;20117;-61
2023/07/12 23:19:19;;;;;;;2.35;0.73;;;;;;;19.72;39.96;99823.16;10427092;28;20052;-61
2023/07/12 23:24:21;;;;;;;1.58;0.45;;;;;;;19.70;39.42;99838.38;10425362;28;20048;-61
2023/07/12 23:29:23;;;;;;;1.65;0.88;;;;;;;19.81;39.22;99839.00;10426680;28;20053;-61
2023/07/12 23:34:25;;;;;;;0.85;0.50;;;;;;;19.94;38.97;99841.28;10409619;28;20045;-61